Time;durP1;ratioP1;P1;durP2;ratioP2;P2;SDS_P1;SDS_P2;PMS_P1;PMS_P2;Temp;Humidity;BMP_temperature;BMP_pressure;BME280_temperature;BME280_humidity;BME280_pressure;Samples;Min_cycle;Max_cycle;Signal;HPM_P1;HPM_P2
2022/12/04 00:01:48;;;;;;;33.17;17.70;;;0.60;99.90;;;;;;5030461;28;20064;-58
2022/12/04 00:04:14;;;;;;;35.67;19.00;;;0.60;99.90;;;;;;5028187;28;21114;-58
2022/12/04 00:06:39;;;;;;;35.58;18.23;;;0.60;99.90;;;;;;5028506;28;20124;-57
2022/12/04 00:09:05;;;;;;;34.78;17.45;;;0.60;99.90;;;;;;5032042;28;20046;-56
2022/12/04 00:11:32;;;;;;;37.05;18.98;;;0.60;99.90;;;;;;5033252;28;20045;-57
2022/12/04 00:13:59;;;;;;;35.10;18.63;;;0.60;99.90;;;;;;5025928;28;20189;-57
2022/12/04 00:16:28;;;;;;;36.08;18.67;;;0.60;99.90;;;;;;5027305;28;20045;-57
2022/12/04 00:18:54;;;;;;;36.63;17.98;;;0.60;99.90;;;;;;5025089;28;20525;-56
2022/12/04 00:21:22;;;;;;;37.65;18.50;;;0.60;99.90;;;;;;5027447;28;20067;-57
2022/12/04 00:23:48;;;;;;;35.85;18.77;;;0.60;99.90;;;;;;5027610;28;20441;-57
2022/12/04 00:26:18;;;;;;;35.47;18.23;;;0.60;99.90;;;;;;5026467;28;20776;-56
2022/12/04 00:28:44;;;;;;;38.20;19.20;;;0.60;99.90;;;;;;5023856;28;20041;-56
2022/12/04 00:31:16;;;;;;;36.33;18.10;;;0.60;99.90;;;;;;5026026;28;20041;-57
2022/12/04 00:33:43;;;;;;;38.42;18.75;;;0.60;99.90;;;;;;5026597;28;20045;-57
2022/12/04 00:36:11;;;;;;;36.15;17.77;;;0.60;99.90;;;;;;5021870;28;21666;-56
2022/12/04 00:38:37;;;;;;;38.03;18.85;;;0.60;99.90;;;;;;5024085;28;20067;-55
2022/12/04 00:41:03;;;;;;;39.13;19.20;;;0.60;99.90;;;;;;5025378;28;20049;-57
2022/12/04 00:43:30;;;;;;;37.67;19.20;;;0.60;99.90;;;;;;5021585;28;20110;-57
2022/12/04 00:45:56;;;;;;;39.95;19.27;;;0.60;99.90;;;;;;5026302;28;20585;-57
2022/12/04 00:48:22;;;;;;;38.92;19.13;;;0.60;99.90;;;;;;5018186;28;20139;-57
2022/12/04 00:50:48;;;;;;;36.63;18.98;;;0.60;99.90;;;;;;5010669;28;20826;-57
2022/12/04 00:53:14;;;;;;;38.70;19.08;;;0.60;99.90;;;;;;5027756;28;20064;-56
2022/12/04 00:55:41;;;;;;;37.60;19.58;;;0.60;99.90;;;;;;5026788;28;20935;-57
2022/12/04 00:58:07;;;;;;;41.42;19.67;;;0.60;99.90;;;;;;5024243;28;20049;-57
2022/12/04 01:00:38;;;;;;;39.75;18.65;;;0.60;99.90;;;;;;5022762;28;20053;-56
2022/12/04 01:03:05;;;;;;;37.58;18.90;;;0.50;99.90;;;;;;5030177;28;20087;-55
2022/12/04 01:05:36;;;;;;;37.00;18.65;;;0.50;99.90;;;;;;5029789;28;20080;-57
2022/12/04 01:08:02;;;;;;;41.75;19.10;;;0.50;99.90;;;;;;5027270;28;20041;-57
2022/12/04 01:10:28;;;;;;;43.00;20.10;;;0.40;99.90;;;;;;5030868;28;20080;-54
2022/12/04 01:12:54;;;;;;;41.72;20.33;;;0.40;99.90;;;;;;5026664;28;20136;-54
2022/12/04 01:15:19;;;;;;;42.55;20.42;;;0.40;99.90;;;;;;5027710;28;20048;-55
2022/12/04 01:17:45;;;;;;;44.80;21.48;;;0.30;99.90;;;;;;5030847;28;20037;-55
2022/12/04 01:20:13;;;;;;;41.25;19.90;;;0.30;99.90;;;;;;5027713;28;20040;-57
2022/12/04 01:22:39;;;;;;;43.03;21.00;;;0.30;99.90;;;;;;5030889;28;20559;-56
2022/12/04 01:25:05;;;;;;;44.90;20.63;;;0.20;99.90;;;;;;5030687;28;20107;-55
2022/12/04 01:27:32;;;;;;;44.85;20.55;;;0.20;99.90;;;;;;5025371;28;20075;-58
2022/12/04 01:29:58;;;;;;;43.17;20.90;;;0.20;99.90;;;;;;5026936;28;20037;-56
2022/12/04 01:32:23;;;;;;;45.08;21.77;;;0.10;99.90;;;;;;5030203;28;20892;-56
2022/12/04 01:34:49;;;;;;;48.65;21.92;;;0.10;99.90;;;;;;5028691;28;20495;-57
2022/12/04 01:37:15;;;;;;;46.60;21.35;;;0.10;99.90;;;;;;5028800;28;20036;-55
2022/12/04 01:39:41;;;;;;;49.25;22.40;;;0.00;99.90;;;;;;5027597;28;20049;-56
2022/12/04 01:42:11;;;;;;;45.13;21.98;;;0.00;99.90;;;;;;5025709;28;20119;-58
2022/12/04 01:44:42;;;;;;;45.72;22.30;;;0.00;99.90;;;;;;5024927;28;20037;-56
2022/12/04 01:47:09;;;;;;;40.88;20.52;;;0.00;99.90;;;;;;5022654;28;20058;-57
2022/12/04 01:49:41;;;;;;;46.88;21.65;;;0.00;99.90;;;;;;5002932;28;22706;-56
2022/12/04 01:52:18;;;;;;;44.65;21.13;;;0.00;99.90;;;;;;5020349;28;20102;-56
2022/12/04 01:54:49;;;;;;;44.65;21.75;;;0.00;99.90;;;;;;4984492;28;20667;-58
2022/12/04 01:57:23;;;;;;;46.22;21.63;;;0.00;99.90;;;;;;4981687;28;20374;-57
2022/12/04 01:59:57;;;;;;;46.45;21.13;;;0.00;99.90;;;;;;4984163;28;20136;-58
2022/12/04 02:02:28;;;;;;;45.13;21.30;;;0.10;99.90;;;;;;4984923;28;20531;-57
2022/12/04 02:04:55;;;;;;;44.75;21.10;;;0.10;99.90;;;;;;4982799;28;20382;-57
2022/12/04 02:07:21;;;;;;;41.72;20.20;;;0.10;99.90;;;;;;4981006;28;20139;-54
2022/12/04 02:09:52;;;;;;;47.20;21.40;;;0.10;99.90;;;;;;4984728;28;20045;-57
2022/12/04 02:12:53;;;;;;;44.13;20.75;;;0.10;99.90;;;;;;4985033;28;20038;-57
2022/12/04 02:15:27;;;;;;;47.45;22.50;;;0.10;99.90;;;;;;4971587;28;20046;-58
2022/12/04 02:17:59;;;;;;;43.05;20.90;;;0.10;99.90;;;;;;4985791;28;20120;-56
2022/12/04 02:21:00;;;;;;;43.88;21.90;;;0.10;99.90;;;;;;4986631;28;20048;-55
2022/12/04 02:24:04;;;;;;;43.80;21.48;;;0.10;99.90;;;;;;4969624;28;20137;-56
2022/12/04 02:26:50;;;;;;;47.50;21.80;;;0.20;99.90;;;;;;4972609;28;20052;-57
2022/12/04 02:29:34;;;;;;;48.85;22.50;;;0.20;99.90;;;;;;4969206;28;21520;-55
2022/12/04 02:32:15;;;;;;;47.85;22.25;;;0.20;99.90;;;;;;4986525;28;20049;-57
2022/12/04 02:35:04;;;;;;;45.20;21.38;;;0.20;99.90;;;;;;4987352;28;20160;-56
2022/12/04 02:37:47;;;;;;;46.22;22.33;;;0.20;99.90;;;;;;4979141;28;20046;-56
2022/12/04 02:40:26;;;;;;;43.95;21.55;;;0.20;99.90;;;;;;4986994;28;20681;-57
2022/12/04 02:43:27;;;;;;;47.45;22.50;;;0.20;99.90;;;;;;4999831;28;20076;-56
2022/12/04 02:45:59;;;;;;;48.65;22.83;;;0.20;99.90;;;;;;4980282;28;20156;-57
2022/12/04 02:48:29;;;;;;;47.60;22.50;;;0.20;99.90;;;;;;4989336;28;20042;-57
2022/12/04 02:50:58;;;;;;;47.13;21.75;;;0.20;99.90;;;;;;4994122;28;20061;-57
2022/12/04 02:53:34;;;;;;;49.97;23.02;;;0.20;99.90;;;;;;5009302;28;20575;-56
2022/12/04 02:56:06;;;;;;;45.90;22.08;;;0.20;99.90;;;;;;5025363;28;20102;-57
2022/12/04 02:58:48;;;;;;;44.50;23.13;;;0.20;99.90;;;;;;5022692;28;20041;-58
2022/12/04 03:01:20;;;;;;;47.50;23.42;;;0.20;99.90;;;;;;5025988;28;20076;-57
2022/12/04 03:04:01;;;;;;;45.60;23.70;;;0.20;99.90;;;;;;5024659;28;20099;-57
2022/12/04 03:06:29;;;;;;;49.50;23.08;;;0.20;99.90;;;;;;5028676;28;20383;-57
2022/12/04 03:09:09;;;;;;;47.40;24.45;;;0.20;99.90;;;;;;5029552;28;20041;-56
2022/12/04 03:11:39;;;;;;;52.35;24.95;;;0.20;99.90;;;;;;5026202;28;20045;-58
2022/12/04 03:14:41;;;;;;;52.67;25.63;;;0.20;99.90;;;;;;5017768;28;20555;-57
2022/12/04 03:17:16;;;;;;;53.42;25.20;;;0.20;99.90;;;;;;5011123;28;20049;-55
2022/12/04 03:19:52;;;;;;;52.28;25.35;;;0.20;99.90;;;;;;5027223;28;20125;-57
2022/12/04 03:22:22;;;;;;;51.72;25.38;;;0.20;99.90;;;;;;5025726;28;20135;-57
2022/12/04 03:24:51;;;;;;;54.45;26.52;;;0.20;99.90;;;;;;5040999;28;20048;-57
2022/12/04 03:27:56;;;;;;;53.50;27.25;;;0.20;99.90;;;;;;5030956;28;20091;-56
2022/12/04 03:30:22;;;;;;;51.65;27.45;;;0.20;99.90;;;;;;5021270;28;20131;-57
2022/12/04 03:32:54;;;;;;;54.70;27.50;;;0.20;99.90;;;;;;5035510;28;20053;-56
2022/12/04 03:35:48;;;;;;;57.55;27.25;;;0.20;99.90;;;;;;5032487;28;20040;-57
2022/12/04 03:38:29;;;;;;;54.33;27.60;;;0.20;99.90;;;;;;5032543;28;20052;-56
2022/12/04 03:41:16;;;;;;;55.85;27.42;;;0.20;99.90;;;;;;5031707;28;20099;-57
2022/12/04 03:44:05;;;;;;;53.58;28.38;;;0.10;99.90;;;;;;5027800;28;20408;-56
2022/12/04 03:46:46;;;;;;;60.42;28.17;;;0.20;99.90;;;;;;5029088;28;20147;-57
2022/12/04 03:49:28;;;;;;;56.03;29.13;;;0.10;99.90;;;;;;5029192;28;20037;-56
2022/12/04 03:52:06;;;;;;;57.23;28.03;;;0.10;99.90;;;;;;5030187;28;20373;-56
2022/12/04 03:54:37;;;;;;;58.10;28.52;;;0.20;99.90;;;;;;5027402;28;20063;-57
2022/12/04 03:57:09;;;;;;;55.67;28.35;;;0.10;99.90;;;;;;5027727;28;20065;-57
2022/12/04 03:59:48;;;;;;;56.03;28.13;;;0.10;99.90;;;;;;5024959;28;20103;-55
2022/12/04 04:02:19;;;;;;;53.28;27.48;;;0.10;99.90;;;;;;5024500;28;20114;-56
2022/12/04 04:04:49;;;;;;;61.20;29.85;;;0.20;99.90;;;;;;5025269;28;20119;-56
2022/12/04 04:07:23;;;;;;;59.72;28.48;;;0.10;99.90;;;;;;5022651;28;20053;-57
2022/12/04 04:09:57;;;;;;;58.00;28.10;;;0.10;99.90;;;;;;5023299;28;20154;-56
2022/12/04 04:12:26;;;;;;;56.03;28.88;;;0.20;99.90;;;;;;5024234;28;20140;-57
2022/12/04 04:26:37;;;;;;;58.10;27.65;;;0.10;99.90;;;;;;5025701;28;20159;-56
2022/12/04 04:29:03;;;;;;;60.95;29.67;;;0.10;99.90;;;;;;5023004;28;20056;-57
2022/12/04 04:31:55;;;;;;;56.08;27.70;;;0.10;99.90;;;;;;5024621;28;20053;-57
2022/12/04 04:34:31;;;;;;;62.00;29.13;;;0.10;99.90;;;;;;5026281;28;20519;-56
2022/12/04 04:37:16;;;;;;;55.47;26.98;;;0.10;99.90;;;;;;5029004;28;20087;-56
2022/12/04 04:40:06;;;;;;;57.33;29.90;;;0.10;99.90;;;;;;5036738;28;20053;-57
2022/12/04 04:42:44;;;;;;;61.35;29.42;;;0.00;99.90;;;;;;5028718;28;20099;-57
2022/12/04 04:45:30;;;;;;;61.15;30.08;;;0.10;99.90;;;;;;5027332;28;20134;-57
2022/12/04 04:48:02;;;;;;;56.60;28.52;;;0.10;99.90;;;;;;5029580;28;20041;-57
2022/12/04 04:50:29;;;;;;;60.70;28.15;;;0.00;99.90;;;;;;5027653;28;20049;-56
2022/12/04 04:53:03;;;;;;;60.13;29.10;;;0.00;99.90;;;;;;5028769;28;20064;-57
2022/12/04 04:55:33;;;;;;;61.10;30.20;;;0.00;99.90;;;;;;5027411;28;20037;-58
2022/12/04 04:58:25;;;;;;;61.35;29.77;;;0.10;99.90;;;;;;5022464;28;20087;-55
2022/12/04 05:01:03;;;;;;;62.25;30.00;;;0.10;99.90;;;;;;5019616;28;20041;-55
2022/12/04 05:03:30;;;;;;;58.15;29.70;;;0.00;99.90;;;;;;5025979;28;20053;-57
2022/12/04 05:05:56;;;;;;;55.42;28.23;;;0.10;99.90;;;;;;5025402;28;20088;-57
2022/12/04 05:08:22;;;;;;;59.00;29.13;;;0.10;99.90;;;;;;5022312;28;20107;-56
2022/12/04 05:10:48;;;;;;;57.60;28.58;;;0.00;99.90;;;;;;5030271;28;20064;-56
2022/12/04 05:13:15;;;;;;;62.13;29.70;;;0.00;99.90;;;;;;5029640;28;20041;-57
2022/12/04 05:15:44;;;;;;;62.75;31.33;;;0.00;99.90;;;;;;5027899;28;20053;-57
2022/12/04 05:18:10;;;;;;;56.97;29.10;;;0.00;99.90;;;;;;5025107;28;20068;-55
2022/12/04 05:20:39;;;;;;;61.60;29.30;;;0.10;99.90;;;;;;5027727;28;20045;-56
2022/12/04 05:23:06;;;;;;;59.83;29.45;;;0.10;99.90;;;;;;5028501;28;20098;-57
2022/12/04 05:25:32;;;;;;;62.67;30.08;;;0.10;99.90;;;;;;5033138;28;20852;-56
2022/12/04 05:27:58;;;;;;;62.22;31.23;;;0.10;99.90;;;;;;5028851;28;20034;-57
2022/12/04 05:30:23;;;;;;;58.28;29.63;;;0.10;99.90;;;;;;5025755;28;20037;-57
2022/12/04 05:32:49;;;;;;;60.78;29.65;;;0.10;99.90;;;;;;5030437;28;20132;-56
2022/12/04 05:35:15;;;;;;;59.80;29.08;;;0.10;99.90;;;;;;5026113;28;20033;-57
2022/12/04 05:37:41;;;;;;;59.22;29.17;;;0.10;99.90;;;;;;5028424;28;20037;-56
2022/12/04 05:40:08;;;;;;;62.08;30.20;;;0.10;99.90;;;;;;5010707;28;20079;-56
2022/12/04 05:42:33;;;;;;;55.85;28.88;;;0.10;99.90;;;;;;5026484;28;20049;-55
2022/12/04 05:44:59;;;;;;;60.38;30.00;;;0.10;99.90;;;;;;5032082;28;20068;-57
2022/12/04 05:47:25;;;;;;;58.50;29.52;;;0.10;99.90;;;;;;5019386;28;20055;-57
2022/12/04 05:49:51;;;;;;;58.42;29.95;;;0.10;99.90;;;;;;5017350;28;20495;-57
2022/12/04 05:52:16;;;;;;;61.42;28.33;;;0.10;99.90;;;;;;5024556;28;20128;-57
2022/12/04 05:54:42;;;;;;;58.00;29.63;;;0.10;99.90;;;;;;5023426;28;20089;-57
2022/12/04 05:57:08;;;;;;;61.50;30.52;;;0.10;99.90;;;;;;5021977;28;20048;-57
2022/12/04 05:59:34;;;;;;;59.97;28.67;;;0.20;99.90;;;;;;5018376;28;20546;-55
2022/12/04 06:02:00;;;;;;;60.10;29.67;;;0.20;99.90;;;;;;5019932;28;20049;-57
2022/12/04 06:04:26;;;;;;;61.50;30.63;;;0.20;99.90;;;;;;5018825;28;20092;-57
2022/12/04 06:06:53;;;;;;;61.05;30.92;;;0.20;99.90;;;;;;5021610;28;20057;-56
2022/12/04 06:09:19;;;;;;;59.75;29.95;;;0.20;99.90;;;;;;5024478;28;20486;-58
2022/12/04 06:11:45;;;;;;;54.67;28.33;;;0.30;99.90;;;;;;5021153;28;20045;-57
2022/12/04 06:14:14;;;;;;;59.03;29.15;;;0.20;99.90;;;;;;4996962;28;20404;-56
2022/12/04 06:16:43;;;;;;;57.92;29.92;;;0.20;99.90;;;;;;5021242;28;20045;-58
2022/12/04 06:19:13;;;;;;;60.58;29.73;;;0.30;99.90;;;;;;5023486;28;20122;-58
2022/12/04 06:21:40;;;;;;;56.72;28.55;;;0.30;99.90;;;;;;5025920;28;20080;-57
2022/12/04 06:24:11;;;;;;;55.80;28.92;;;0.30;99.90;;;;;;5020436;28;20044;-57
2022/12/04 06:26:37;;;;;;;59.25;28.88;;;0.30;99.90;;;;;;5020699;28;20044;-56
2022/12/04 06:29:03;;;;;;;61.40;30.25;;;0.30;99.90;;;;;;5019692;28;20055;-56
2022/12/04 06:31:29;;;;;;;57.33;29.75;;;0.30;99.90;;;;;;5022701;28;20066;-57
2022/12/04 06:33:56;;;;;;;60.10;29.83;;;0.30;99.90;;;;;;5020881;28;20048;-57
2022/12/04 06:36:23;;;;;;;60.83;30.88;;;0.30;99.90;;;;;;5021619;28;20129;-56
2022/12/04 06:38:50;;;;;;;61.28;28.90;;;0.30;99.90;;;;;;5020354;28;20037;-56
2022/12/04 06:41:18;;;;;;;62.65;30.02;;;0.30;99.90;;;;;;5024048;28;20980;-57
2022/12/04 06:43:44;;;;;;;60.97;30.80;;;0.40;99.90;;;;;;5021825;28;20088;-57
2022/12/04 06:46:13;;;;;;;59.17;28.95;;;0.40;99.90;;;;;;5020492;28;20048;-56
2022/12/04 06:48:40;;;;;;;62.55;30.67;;;0.40;99.90;;;;;;5019032;28;20045;-57
2022/12/04 06:51:21;;;;;;;63.28;30.02;;;0.40;99.90;;;;;;5016812;28;20049;-56
2022/12/04 06:53:47;;;;;;;65.25;30.58;;;0.40;99.90;;;;;;5019660;28;20072;-57
2022/12/04 06:56:17;;;;;;;60.70;29.25;;;0.40;99.90;;;;;;5022165;28;20045;-56
2022/12/04 06:58:51;;;;;;;61.70;29.30;;;0.40;99.90;;;;;;5025284;28;20040;-57
2022/12/04 07:01:19;;;;;;;61.63;28.75;;;0.40;99.90;;;;;;5025787;28;20056;-59
2022/12/04 07:03:47;;;;;;;61.30;29.98;;;0.40;99.90;;;;;;5025581;28;20449;-57
2022/12/04 07:06:27;;;;;;;66.25;30.45;;;0.40;99.90;;;;;;5025245;28;20915;-58
2022/12/04 07:08:58;;;;;;;57.50;29.48;;;0.40;99.90;;;;;;5023897;28;20762;-58
2022/12/04 07:11:24;;;;;;;61.85;29.67;;;0.40;99.90;;;;;;5025131;28;20136;-58
2022/12/04 07:13:50;;;;;;;61.97;30.58;;;0.40;99.90;;;;;;5024173;28;20049;-59
2022/12/04 07:16:19;;;;;;;59.20;29.50;;;0.40;99.90;;;;;;5023124;28;20403;-58
2022/12/04 07:18:45;;;;;;;63.67;29.35;;;0.40;99.90;;;;;;5013633;28;20041;-57
2022/12/04 07:21:15;;;;;;;59.97;30.38;;;0.40;99.90;;;;;;5024013;28;20052;-60
2022/12/04 07:23:41;;;;;;;64.05;31.15;;;0.40;99.90;;;;;;5026858;28;20055;-57
2022/12/04 07:26:09;;;;;;;62.47;30.33;;;0.40;99.90;;;;;;5026559;28;20048;-57
2022/12/04 07:28:35;;;;;;;65.10;30.70;;;0.40;99.90;;;;;;5028841;28;20056;-59
2022/12/04 07:31:10;;;;;;;61.97;30.00;;;0.40;99.90;;;;;;5028356;28;20415;-57
2022/12/04 07:33:36;;;;;;;58.35;29.65;;;0.40;99.90;;;;;;5025454;28;20621;-57
2022/12/04 07:36:05;;;;;;;60.10;29.70;;;0.50;99.90;;;;;;5012335;28;20040;-58
2022/12/04 07:38:33;;;;;;;62.22;29.90;;;0.50;99.90;;;;;;5025955;28;20071;-58
2022/12/04 07:41:01;;;;;;;60.70;29.52;;;0.40;99.90;;;;;;5026704;28;20055;-58
2022/12/04 07:43:28;;;;;;;63.63;30.45;;;0.50;99.90;;;;;;5026619;28;20122;-58
2022/12/04 07:45:54;;;;;;;62.15;29.80;;;0.50;99.90;;;;;;5029952;28;20080;-59
2022/12/04 07:48:20;;;;;;;63.65;30.33;;;0.50;99.90;;;;;;5031204;28;20238;-58
2022/12/04 07:50:46;;;;;;;60.42;30.25;;;0.50;99.90;;;;;;5027723;28;20053;-57
2022/12/04 07:53:12;;;;;;;60.92;29.58;;;0.50;99.90;;;;;;5028136;28;20075;-58
2022/12/04 07:55:38;;;;;;;63.42;29.98;;;0.50;99.90;;;;;;5029434;28;20716;-58
2022/12/04 07:58:03;;;;;;;61.38;29.92;;;0.50;99.90;;;;;;5030075;28;20045;-59
2022/12/04 08:00:29;;;;;;;64.47;29.23;;;0.60;99.90;;;;;;5020844;28;20080;-59
2022/12/04 08:02:55;;;;;;;60.72;29.48;;;0.60;99.90;;;;;;5024447;28;20077;-58
2022/12/04 08:05:21;;;;;;;62.33;29.42;;;0.60;99.90;;;;;;5029309;28;20129;-58
2022/12/04 08:07:47;;;;;;;59.75;29.55;;;0.60;99.90;;;;;;5027563;28;20472;-58
2022/12/04 08:10:13;;;;;;;61.38;30.08;;;0.60;99.90;;;;;;5028931;28;20102;-56
2022/12/04 08:12:39;;;;;;;61.78;29.38;;;0.60;99.90;;;;;;5026051;28;20060;-58
2022/12/04 08:15:06;;;;;;;60.55;30.55;;;0.60;99.90;;;;;;5027100;28;20037;-58
2022/12/04 08:17:32;;;;;;;57.58;28.35;;;0.60;99.90;;;;;;5029414;28;20044;-59
2022/12/04 08:19:58;;;;;;;61.83;29.58;;;0.60;99.90;;;;;;5030410;28;20927;-58
2022/12/04 08:22:24;;;;;;;59.67;29.52;;;0.60;99.90;;;;;;5027428;28;20053;-59
2022/12/04 08:24:50;;;;;;;58.03;28.77;;;0.70;99.90;;;;;;5026643;28;20100;-58
2022/12/04 08:27:16;;;;;;;59.90;29.73;;;0.70;99.90;;;;;;5029509;28;20053;-59
2022/12/04 08:29:41;;;;;;;59.92;29.40;;;0.70;99.90;;;;;;5027156;28;20047;-59
2022/12/04 08:32:07;;;;;;;58.45;28.98;;;0.70;99.90;;;;;;5025877;28;20064;-59
2022/12/04 08:34:34;;;;;;;57.47;29.20;;;0.80;99.90;;;;;;5024742;28;20116;-57
2022/12/04 08:36:59;;;;;;;54.75;28.35;;;0.70;99.90;;;;;;5031869;28;20595;-58
2022/12/04 08:39:25;;;;;;;58.38;29.42;;;0.80;99.90;;;;;;5024658;28;20068;-59
2022/12/04 08:41:51;;;;;;;54.20;27.65;;;0.80;99.90;;;;;;5027316;28;20041;-58
2022/12/04 08:44:17;;;;;;;57.28;28.90;;;0.80;99.90;;;;;;5025252;28;20052;-59
2022/12/04 08:46:43;;;;;;;54.25;28.83;;;0.80;99.90;;;;;;5028958;28;20549;-59
2022/12/04 08:49:09;;;;;;;59.13;28.58;;;0.90;99.90;;;;;;5032166;28;20848;-59
2022/12/04 08:51:35;;;;;;;53.67;28.33;;;0.90;99.90;;;;;;5028552;28;20053;-58
2022/12/04 08:54:04;;;;;;;62.88;29.25;;;0.90;99.90;;;;;;5017422;28;20056;-58
2022/12/04 08:56:31;;;;;;;55.55;27.73;;;0.90;99.90;;;;;;5025958;28;20041;-58
2022/12/04 08:58:58;;;;;;;54.72;27.35;;;0.90;99.90;;;;;;5024825;28;20049;-59
2022/12/04 09:01:25;;;;;;;57.15;28.08;;;0.90;99.90;;;;;;5022730;28;20398;-58
2022/12/04 09:03:51;;;;;;;55.72;27.73;;;0.90;99.90;;;;;;5019325;28;20049;-58
2022/12/04 09:06:17;;;;;;;51.92;27.27;;;1.00;99.90;;;;;;5018797;28;20451;-59
2022/12/04 09:08:43;;;;;;;57.03;27.90;;;1.00;99.90;;;;;;5025616;28;20165;-59
2022/12/04 09:11:12;;;;;;;53.22;27.00;;;1.00;99.90;;;;;;5028417;28;20051;-59
2022/12/04 09:13:40;;;;;;;51.97;26.58;;;1.00;99.90;;;;;;5027864;28;20332;-58
2022/12/04 09:16:08;;;;;;;51.28;26.40;;;1.10;99.90;;;;;;5019158;28;20047;-57
2022/12/04 09:18:35;;;;;;;52.42;26.77;;;1.10;99.90;;;;;;5030986;28;20659;-59
2022/12/04 09:21:04;;;;;;;49.17;25.73;;;1.10;99.90;;;;;;5026871;28;20114;-58
2022/12/04 09:23:32;;;;;;;47.95;25.35;;;1.10;99.90;;;;;;5031991;28;20053;-58
2022/12/04 09:25:57;;;;;;;49.70;26.13;;;1.20;99.90;;;;;;5029223;28;20155;-59
2022/12/04 09:28:23;;;;;;;51.20;26.27;;;1.20;99.90;;;;;;5033224;28;20129;-58
2022/12/04 09:30:56;;;;;;;49.10;25.83;;;1.20;99.90;;;;;;5031306;28;20203;-57
2022/12/04 09:33:22;;;;;;;;;;;1.20;99.90;;;;;;5025171;28;20131;-59
2022/12/04 09:35:48;;;;;;;49.67;25.95;;;1.30;99.90;;;;;;5028796;28;19956;-59
2022/12/04 09:38:13;;;;;;;46.15;24.83;;;1.30;99.90;;;;;;5028137;28;20041;-58
2022/12/04 09:40:48;;;;;;;47.40;25.75;;;1.30;99.90;;;;;;5029873;28;20048;-59
2022/12/04 09:43:29;;;;;;;54.17;26.58;;;1.40;99.90;;;;;;5028090;28;21119;-59
2022/12/04 09:46:00;;;;;;;45.45;24.50;;;1.40;99.90;;;;;;5022549;28;20199;-58
2022/12/04 09:48:37;;;;;;;47.08;25.10;;;1.40;99.90;;;;;;5022708;28;20098;-58
2022/12/04 09:51:05;;;;;;;46.92;24.23;;;1.50;99.90;;;;;;5021864;28;20048;-58
2022/12/04 09:53:53;;;;;;;41.22;22.65;;;1.50;99.90;;;;;;5026126;28;20057;-58
2022/12/04 09:56:23;;;;;;;37.08;20.13;;;1.70;99.90;;;;;;5023803;28;20095;-58
2022/12/04 09:59:02;;;;;;;40.90;20.05;;;1.60;99.90;;;;;;5009253;28;20095;-58
2022/12/04 10:01:45;;;;;;;33.80;18.50;;;1.70;99.90;;;;;;5025477;28;20059;-58
2022/12/04 10:04:12;;;;;;;35.15;19.00;;;1.80;99.90;;;;;;5023171;28;20448;-58
2022/12/04 10:06:52;;;;;;;34.28;19.48;;;1.80;99.90;;;;;;5018942;28;20118;-59
2022/12/04 10:09:49;;;;;;;34.55;19.20;;;1.90;99.90;;;;;;5013602;28;20052;-59
2022/12/04 10:12:28;;;;;;;37.35;20.02;;;2.00;99.90;;;;;;5029331;28;20045;-57
2022/12/04 10:15:30;;;;;;;35.50;18.65;;;2.00;99.90;;;;;;5022673;28;20069;-59
2022/12/04 10:18:25;;;;;;;37.65;20.33;;;2.00;99.90;;;;;;5025039;28;20132;-58
2022/12/04 10:20:54;;;;;;;37.88;19.52;;;2.10;99.90;;;;;;5029400;28;20050;-59
2022/12/04 10:23:41;;;;;;;34.08;18.35;;;2.10;99.90;;;;;;5019285;28;20045;-58
2022/12/04 10:26:16;;;;;;;35.58;19.52;;;2.10;99.90;;;;;;5029721;28;21524;-59
2022/12/04 10:28:55;;;;;;;33.75;19.52;;;2.10;99.90;;;;;;5043779;28;20045;-58
2022/12/04 10:31:22;;;;;;;33.47;18.70;;;2.20;99.90;;;;;;5030325;28;20108;-59
2022/12/04 10:34:02;;;;;;;32.10;18.02;;;2.20;99.90;;;;;;5029432;28;20519;-59
2022/12/04 10:36:32;;;;;;;31.95;18.30;;;2.20;99.90;;;;;;5032899;28;20132;-59
2022/12/04 10:39:16;;;;;;;30.95;17.48;;;2.30;99.90;;;;;;5029489;28;20057;-59
2022/12/04 10:41:51;;;;;;;29.35;16.45;;;2.20;99.90;;;;;;5031237;28;20052;-57
2022/12/04 10:44:19;;;;;;;28.48;16.48;;;2.30;99.90;;;;;;5029783;28;20943;-59
2022/12/04 10:46:45;;;;;;;27.92;15.57;;;2.30;99.90;;;;;;5036074;28;20072;-57
2022/12/04 10:49:27;;;;;;;29.65;16.13;;;2.30;99.90;;;;;;5031432;28;20265;-60
2022/12/04 10:51:53;;;;;;;26.45;14.65;;;2.30;99.90;;;;;;5029068;28;20076;-58
2022/12/04 10:54:56;;;;;;;26.85;15.52;;;2.30;99.90;;;;;;5031020;28;20068;-58
2022/12/04 10:57:33;;;;;;;26.23;14.93;;;2.30;99.90;;;;;;5034788;28;20053;-58
2022/12/04 10:59:58;;;;;;;22.75;13.55;;;2.40;99.90;;;;;;5033786;28;20053;-60
2022/12/04 11:02:24;;;;;;;21.13;13.10;;;2.40;99.90;;;;;;5031413;28;20463;-58
2022/12/04 11:04:57;;;;;;;20.25;12.70;;;2.40;99.90;;;;;;5031249;28;20056;-59
2022/12/04 11:07:25;;;;;;;;;;;2.40;99.90;;;;;;5032581;28;20199;-59
2022/12/04 11:10:02;;;;;;;26.45;14.73;;;2.50;99.90;;;;;;5029119;28;19920;-59
2022/12/04 11:12:29;;;;;;;23.52;14.13;;;2.40;99.90;;;;;;5032548;28;20056;-59
2022/12/04 11:15:12;;;;;;;24.33;14.18;;;2.50;99.90;;;;;;5034112;28;20037;-58
2022/12/04 11:17:38;;;;;;;22.08;13.07;;;2.50;99.90;;;;;;5033160;28;20100;-60
2022/12/04 11:20:12;;;;;;;25.33;14.48;;;2.50;99.90;;;;;;5029663;28;20079;-58
2022/12/04 11:22:55;;;;;;;24.63;14.30;;;2.50;99.90;;;;;;5028395;28;20060;-59
2022/12/04 11:25:22;;;;;;;;;;;2.50;99.90;;;;;;5027621;28;20057;-58
2022/12/04 11:28:01;;;;;;;22.88;13.63;;;2.50;99.90;;;;;;5027316;28;19924;-58
2022/12/04 11:30:37;;;;;;;27.95;15.63;;;2.50;99.90;;;;;;5025588;28;20056;-58
2022/12/04 11:33:07;;;;;;;25.63;14.40;;;2.50;99.90;;;;;;5025722;28;20045;-59
2022/12/04 11:35:33;;;;;;;25.05;13.73;;;2.50;99.90;;;;;;5021439;28;20097;-58
2022/12/04 11:38:18;;;;;;;22.95;13.68;;;2.50;99.90;;;;;;5024084;28;20589;-59
2022/12/04 11:40:52;;;;;;;23.98;13.82;;;2.50;99.90;;;;;;5029486;28;20495;-59
2022/12/04 11:43:19;;;;;;;23.40;14.07;;;2.60;99.90;;;;;;5029763;28;20056;-60
2022/12/04 11:45:57;;;;;;;24.23;13.98;;;2.50;99.90;;;;;;5030987;28;20049;-58
2022/12/04 11:48:24;;;;;;;26.83;15.68;;;2.50;99.90;;;;;;5029010;28;20053;-59
2022/12/04 11:50:59;;;;;;;24.58;15.07;;;2.50;99.90;;;;;;5029272;28;20064;-59
2022/12/04 11:53:34;;;;;;;23.38;13.70;;;2.50;99.90;;;;;;5021759;28;25343;-59
2022/12/04 11:56:27;;;;;;;26.63;15.13;;;2.50;99.90;;;;;;5029183;28;20041;-59
2022/12/04 11:59:26;;;;;;;26.00;15.13;;;2.50;99.90;;;;;;5029026;28;20042;-58
2022/12/04 12:02:23;;;;;;;26.55;15.40;;;2.50;99.90;;;;;;5027223;28;20053;-59
2022/12/04 12:05:23;;;;;;;26.92;15.65;;;2.40;99.90;;;;;;5021996;28;20498;-59
2022/12/04 12:08:05;;;;;;;26.10;15.43;;;2.50;99.90;;;;;;5026239;28;20915;-57
2022/12/04 12:10:42;;;;;;;26.05;16.05;;;2.50;99.90;;;;;;5026229;28;20163;-57
2022/12/04 12:13:41;;;;;;;28.83;14.93;;;2.50;99.90;;;;;;5022482;28;20037;-58
2022/12/04 12:16:25;;;;;;;25.27;14.57;;;2.50;99.90;;;;;;5023913;28;20049;-58
2022/12/04 12:19:16;;;;;;;26.13;15.52;;;2.50;99.90;;;;;;5021061;28;20156;-59
2022/12/04 12:21:53;;;;;;;26.42;15.85;;;2.50;99.90;;;;;;5021839;28;20132;-58
2022/12/04 12:24:55;;;;;;;27.92;15.68;;;2.50;99.90;;;;;;5025115;28;20055;-58
2022/12/04 12:27:46;;;;;;;27.98;16.05;;;2.50;99.90;;;;;;5024363;28;20552;-58
2022/12/04 12:30:23;;;;;;;26.80;16.05;;;2.50;99.90;;;;;;5019131;28;20399;-59
2022/12/04 12:33:18;;;;;;;26.75;15.40;;;2.50;99.90;;;;;;5025848;28;20052;-58
2022/12/04 12:36:07;;;;;;;26.75;16.27;;;2.50;99.90;;;;;;5022054;28;20567;-57
2022/12/04 12:38:50;;;;;;;32.85;17.02;;;2.50;99.90;;;;;;5019536;28;20063;-59
2022/12/04 12:41:24;;;;;;;;;;;2.60;99.90;;;;;;5025633;28;20060;-58
2022/12/04 12:44:01;;;;;;;28.33;16.13;;;2.50;99.90;;;;;;5025934;28;19943;-59
2022/12/04 12:46:38;;;;;;;28.90;16.48;;;2.50;99.90;;;;;;5026576;28;20049;-59
2022/12/04 12:49:17;;;;;;;29.52;16.63;;;2.50;99.90;;;;;;5019278;28;20128;-57
2022/12/04 12:51:51;;;;;;;29.05;17.83;;;2.60;99.90;;;;;;5020218;28;20073;-59
2022/12/04 12:54:30;;;;;;;28.02;16.48;;;2.60;99.90;;;;;;5017886;28;20507;-57
2022/12/04 12:57:04;;;;;;;30.40;17.38;;;2.60;99.90;;;;;;5038117;28;20053;-59
2022/12/04 12:59:31;;;;;;;29.63;17.65;;;2.60;99.90;;;;;;5023687;28;20128;-59
2022/12/04 13:02:16;;;;;;;30.17;17.25;;;2.70;99.90;;;;;;5028781;28;20049;-58
2022/12/04 13:04:48;;;;;;;28.90;16.33;;;2.60;99.90;;;;;;5025141;28;20325;-58
2022/12/04 13:07:17;;;;;;;30.30;16.85;;;2.60;99.90;;;;;;4992413;28;20045;-59
2022/12/04 13:10:08;;;;;;;31.05;16.83;;;2.60;99.90;;;;;;5021016;28;20135;-58
2022/12/04 13:12:54;;;;;;;30.50;16.70;;;2.60;99.90;;;;;;4998701;28;20057;-58
2022/12/04 13:15:23;;;;;;;32.00;17.23;;;2.60;99.90;;;;;;5024025;28;20465;-58
2022/12/04 13:17:52;;;;;;;30.45;17.13;;;2.60;99.90;;;;;;5023072;28;20057;-57